sensor_id;sensor_type;location;lat;lon;timestamp;P1;durP1;ratioP1;P2;durP2;ratioP2
37997;SDS011;24079;51.824;4.682;2023-04-25T00:00:27;24.92;;;5.00;;
37997;SDS011;24079;51.824;4.682;2023-04-25T00:02:52;17.55;;;4.18;;
37997;SDS011;24079;51.824;4.682;2023-04-25T00:05:18;22.80;;;4.32;;
37997;SDS011;24079;51.824;4.682;2023-04-25T00:07:44;26.40;;;4.88;;
37997;SDS011;24079;51.824;4.682;2023-04-25T00:10:11;18.48;;;4.07;;
37997;SDS011;24079;51.824;4.682;2023-04-25T00:12:37;23.98;;;5.10;;
37997;SDS011;24079;51.824;4.682;2023-04-25T00:15:04;27.90;;;5.90;;
37997;SDS011;24079;51.824;4.682;2023-04-25T00:17:30;26.33;;;5.72;;
37997;SDS011;24079;51.824;4.682;2023-04-25T00:19:56;26.35;;;5.57;;
37997;SDS011;24079;51.824;4.682;2023-04-25T00:22:23;20.90;;;4.93;;
37997;SDS011;24079;51.824;4.682;2023-04-25T00:24:48;21.75;;;4.80;;
37997;SDS011;24079;51.824;4.682;2023-04-25T00:27:15;30.52;;;5.15;;
37997;SDS011;24079;51.824;4.682;2023-04-25T00:29:40;25.35;;;5.28;;
37997;SDS011;24079;51.824;4.682;2023-04-25T00:32:06;28.35;;;5.55;;
37997;SDS011;24079;51.824;4.682;2023-04-25T00:34:31;23.75;;;5.00;;
37997;SDS011;24079;51.824;4.682;2023-04-25T00:36:57;19.02;;;5.15;;
37997;SDS011;24079;51.824;4.682;2023-04-25T00:39:23;28.00;;;5.57;;
37997;SDS011;24079;51.824;4.682;2023-04-25T00:41:48;34.10;;;5.13;;
37997;SDS011;24079;51.824;4.682;2023-04-25T00:44:18;31.13;;;4.97;;
37997;SDS011;24079;51.824;4.682;2023-04-25T00:46:44;22.20;;;4.97;;
37997;SDS011;24079;51.824;4.682;2023-04-25T00:49:12;24.88;;;5.72;;
37997;SDS011;24079;51.824;4.682;2023-04-25T00:51:40;21.02;;;4.65;;
37997;SDS011;24079;51.824;4.682;2023-04-25T00:54:06;29.30;;;5.93;;
37997;SDS011;24079;51.824;4.682;2023-04-25T00:56:32;26.58;;;5.65;;
37997;SDS011;24079;51.824;4.682;2023-04-25T00:58:58;21.95;;;4.75;;
37997;SDS011;24079;51.824;4.682;2023-04-25T01:01:23;26.25;;;5.40;;
37997;SDS011;24079;51.824;4.682;2023-04-25T01:03:49;19.75;;;4.97;;
37997;SDS011;24079;51.824;4.682;2023-04-25T01:06:16;22.95;;;4.85;;
37997;SDS011;24079;51.824;4.682;2023-04-25T01:08:42;18.65;;;4.50;;
37997;SDS011;24079;51.824;4.682;2023-04-25T01:11:08;23.02;;;4.38;;
37997;SDS011;24079;51.824;4.682;2023-04-25T01:13:34;22.73;;;4.38;;
37997;SDS011;24079;51.824;4.682;2023-04-25T01:16:00;23.25;;;4.47;;
37997;SDS011;24079;51.824;4.682;2023-04-25T01:18:27;17.58;;;4.97;;
37997;SDS011;24079;51.824;4.682;2023-04-25T01:20:53;26.63;;;5.13;;
37997;SDS011;24079;51.824;4.682;2023-04-25T01:23:19;26.65;;;4.72;;
37997;SDS011;24079;51.824;4.682;2023-04-25T01:25:46;20.30;;;5.15;;
37997;SDS011;24079;51.824;4.682;2023-04-25T01:28:13;22.80;;;4.80;;
37997;SDS011;24079;51.824;4.682;2023-04-25T01:30:39;25.33;;;5.70;;
37997;SDS011;24079;51.824;4.682;2023-04-25T01:33:05;25.25;;;4.63;;
37997;SDS011;24079;51.824;4.682;2023-04-25T01:35:33;21.15;;;3.97;;
37997;SDS011;24079;51.824;4.682;2023-04-25T01:37:59;29.95;;;5.18;;
37997;SDS011;24079;51.824;4.682;2023-04-25T01:40:25;19.23;;;4.60;;
37997;SDS011;24079;51.824;4.682;2023-04-25T01:42:52;24.92;;;4.30;;
37997;SDS011;24079;51.824;4.682;2023-04-25T01:45:18;20.73;;;4.68;;
37997;SDS011;24079;51.824;4.682;2023-04-25T01:47:44;29.67;;;5.00;;
37997;SDS011;24079;51.824;4.682;2023-04-25T01:50:13;26.17;;;4.88;;
37997;SDS011;24079;51.824;4.682;2023-04-25T01:52:40;20.08;;;4.32;;
37997;SDS011;24079;51.824;4.682;2023-04-25T01:55:06;24.20;;;5.18;;
37997;SDS011;24079;51.824;4.682;2023-04-25T01:57:32;23.33;;;4.53;;
37997;SDS011;24079;51.824;4.682;2023-04-25T01:59:58;26.85;;;4.10;;
37997;SDS011;24079;51.824;4.682;2023-04-25T02:02:26;26.38;;;5.28;;
37997;SDS011;24079;51.824;4.682;2023-04-25T02:04:52;23.95;;;4.43;;
37997;SDS011;24079;51.824;4.682;2023-04-25T02:07:19;20.25;;;4.22;;
37997;SDS011;24079;51.824;4.682;2023-04-25T02:09:44;24.20;;;4.47;;
37997;SDS011;24079;51.824;4.682;2023-04-25T02:12:10;15.48;;;4.55;;
37997;SDS011;24079;51.824;4.682;2023-04-25T02:14:36;22.77;;;3.97;;
37997;SDS011;24079;51.824;4.682;2023-04-25T02:17:02;23.90;;;4.75;;
37997;SDS011;24079;51.824;4.682;2023-04-25T02:19:28;25.77;;;4.32;;
37997;SDS011;24079;51.824;4.682;2023-04-25T02:21:53;19.58;;;3.88;;
37997;SDS011;24079;51.824;4.682;2023-04-25T02:24:19;27.15;;;4.85;;
37997;SDS011;24079;51.824;4.682;2023-04-25T02:26:45;30.15;;;5.25;;
37997;SDS011;24079;51.824;4.682;2023-04-25T02:29:12;18.45;;;4.03;;
37997;SDS011;24079;51.824;4.682;2023-04-25T02:31:37;25.40;;;5.03;;
37997;SDS011;24079;51.824;4.682;2023-04-25T02:34:03;25.23;;;4.38;;
37997;SDS011;24079;51.824;4.682;2023-04-25T02:36:29;28.65;;;4.93;;
37997;SDS011;24079;51.824;4.682;2023-04-25T02:38:57;17.55;;;4.03;;
37997;SDS011;24079;51.824;4.682;2023-04-25T02:41:22;21.30;;;4.22;;
37997;SDS011;24079;51.824;4.682;2023-04-25T02:43:48;22.33;;;4.70;;
37997;SDS011;24079;51.824;4.682;2023-04-25T02:46:14;17.25;;;4.25;;
37997;SDS011;24079;51.824;4.682;2023-04-25T02:48:39;19.00;;;3.83;;
37997;SDS011;24079;51.824;4.682;2023-04-25T02:51:05;20.35;;;3.92;;
37997;SDS011;24079;51.824;4.682;2023-04-25T02:53:31;26.30;;;4.82;;
37997;SDS011;24079;51.824;4.682;2023-04-25T02:55:56;16.58;;;3.58;;
37997;SDS011;24079;51.824;4.682;2023-04-25T02:58:24;25.52;;;4.60;;
37997;SDS011;24079;51.824;4.682;2023-04-25T03:00:49;18.30;;;4.47;;
37997;SDS011;24079;51.824;4.682;2023-04-25T03:03:15;24.20;;;4.55;;
37997;SDS011;24079;51.824;4.682;2023-04-25T03:05:50;18.67;;;3.95;;
37997;SDS011;24079;51.824;4.682;2023-04-25T03:08:17;21.90;;;3.60;;
37997;SDS011;24079;51.824;4.682;2023-04-25T03:10:44;12.82;;;3.33;;
37997;SDS011;24079;51.824;4.682;2023-04-25T03:13:10;11.82;;;2.42;;
37997;SDS011;24079;51.824;4.682;2023-04-25T03:15:37;14.60;;;3.05;;
37997;SDS011;24079;51.824;4.682;2023-04-25T03:18:04;11.75;;;2.38;;
37997;SDS011;24079;51.824;4.682;2023-04-25T03:20:30;10.85;;;2.20;;
37997;SDS011;24079;51.824;4.682;2023-04-25T03:22:56;12.60;;;3.30;;
37997;SDS011;24079;51.824;4.682;2023-04-25T03:25:22;11.73;;;2.60;;
37997;SDS011;24079;51.824;4.682;2023-04-25T03:27:48;13.60;;;3.05;;
37997;SDS011;24079;51.824;4.682;2023-04-25T03:30:14;11.35;;;2.28;;
37997;SDS011;24079;51.824;4.682;2023-04-25T03:32:40;9.82;;;3.33;;
37997;SDS011;24079;51.824;4.682;2023-04-25T03:35:06;7.68;;;2.00;;
37997;SDS011;24079;51.824;4.682;2023-04-25T03:37:32;21.60;;;3.17;;
37997;SDS011;24079;51.824;4.682;2023-04-25T03:39:58;10.40;;;2.60;;
37997;SDS011;24079;51.824;4.682;2023-04-25T03:42:23;13.10;;;2.50;;
37997;SDS011;24079;51.824;4.682;2023-04-25T03:44:49;12.27;;;2.63;;
37997;SDS011;24079;51.824;4.682;2023-04-25T03:47:16;14.55;;;2.67;;
37997;SDS011;24079;51.824;4.682;2023-04-25T03:49:41;14.45;;;3.20;;
37997;SDS011;24079;51.824;4.682;2023-04-25T03:52:07;17.70;;;3.15;;
37997;SDS011;24079;51.824;4.682;2023-04-25T03:54:33;16.38;;;2.58;;
37997;SDS011;24079;51.824;4.682;2023-04-25T03:56:58;11.07;;;2.70;;
37997;SDS011;24079;51.824;4.682;2023-04-25T03:59:24;13.68;;;2.65;;
37997;SDS011;24079;51.824;4.682;2023-04-25T04:01:51;13.20;;;3.05;;
37997;SDS011;24079;51.824;4.682;2023-04-25T04:04:17;20.35;;;3.20;;
37997;SDS011;24079;51.824;4.682;2023-04-25T04:06:43;13.98;;;3.28;;
37997;SDS011;24079;51.824;4.682;2023-04-25T04:09:08;8.45;;;2.20;;
37997;SDS011;24079;51.824;4.682;2023-04-25T04:11:36;18.33;;;3.03;;
37997;SDS011;24079;51.824;4.682;2023-04-25T04:14:03;13.35;;;2.75;;
37997;SDS011;24079;51.824;4.682;2023-04-25T04:16:30;12.40;;;2.35;;
37997;SDS011;24079;51.824;4.682;2023-04-25T04:18:56;11.05;;;2.53;;
37997;SDS011;24079;51.824;4.682;2023-04-25T04:21:21;14.82;;;3.10;;
37997;SDS011;24079;51.824;4.682;2023-04-25T04:23:47;13.02;;;2.53;;
37997;SDS011;24079;51.824;4.682;2023-04-25T04:26:13;17.33;;;3.38;;
37997;SDS011;24079;51.824;4.682;2023-04-25T04:28:41;17.15;;;4.38;;
37997;SDS011;24079;51.824;4.682;2023-04-25T04:31:07;14.52;;;3.75;;
37997;SDS011;24079;51.824;4.682;2023-04-25T04:33:34;16.38;;;4.20;;
37997;SDS011;24079;51.824;4.682;2023-04-25T04:36:00;16.50;;;3.85;;
37997;SDS011;24079;51.824;4.682;2023-04-25T04:38:27;15.82;;;3.50;;
37997;SDS011;24079;51.824;4.682;2023-04-25T04:40:54;17.60;;;4.22;;
37997;SDS011;24079;51.824;4.682;2023-04-25T04:43:19;13.98;;;3.03;;
37997;SDS011;24079;51.824;4.682;2023-04-25T04:45:45;16.88;;;2.70;;
37997;SDS011;24079;51.824;4.682;2023-04-25T04:48:11;18.13;;;3.05;;
37997;SDS011;24079;51.824;4.682;2023-04-25T04:50:39;23.15;;;3.13;;
37997;SDS011;24079;51.824;4.682;2023-04-25T04:53:05;13.80;;;2.83;;
37997;SDS011;24079;51.824;4.682;2023-04-25T04:55:31;14.45;;;2.95;;
37997;SDS011;24079;51.824;4.682;2023-04-25T04:57:56;11.57;;;2.92;;
37997;SDS011;24079;51.824;4.682;2023-04-25T05:00:22;16.45;;;3.63;;
37997;SDS011;24079;51.824;4.682;2023-04-25T05:02:47;15.93;;;2.92;;
37997;SDS011;24079;51.824;4.682;2023-04-25T05:05:13;21.65;;;3.25;;
37997;SDS011;24079;51.824;4.682;2023-04-25T05:07:38;20.98;;;4.03;;
37997;SDS011;24079;51.824;4.682;2023-04-25T05:10:04;18.27;;;3.33;;
37997;SDS011;24079;51.824;4.682;2023-04-25T05:12:31;17.27;;;3.08;;
37997;SDS011;24079;51.824;4.682;2023-04-25T05:14:57;14.77;;;3.30;;
37997;SDS011;24079;51.824;4.682;2023-04-25T05:17:22;15.07;;;3.30;;
37997;SDS011;24079;51.824;4.682;2023-04-25T05:19:48;15.32;;;3.08;;
37997;SDS011;24079;51.824;4.682;2023-04-25T05:22:14;15.10;;;2.85;;
37997;SDS011;24079;51.824;4.682;2023-04-25T05:24:40;16.40;;;3.65;;
37997;SDS011;24079;51.824;4.682;2023-04-25T05:27:05;14.45;;;3.38;;
37997;SDS011;24079;51.824;4.682;2023-04-25T05:29:31;17.83;;;3.58;;
37997;SDS011;24079;51.824;4.682;2023-04-25T05:31:58;20.73;;;3.45;;
37997;SDS011;24079;51.824;4.682;2023-04-25T05:34:24;17.85;;;3.95;;
37997;SDS011;24079;51.824;4.682;2023-04-25T05:36:49;16.08;;;3.08;;
37997;SDS011;24079;51.824;4.682;2023-04-25T05:39:15;12.15;;;2.95;;
37997;SDS011;24079;51.824;4.682;2023-04-25T05:41:44;16.05;;;3.05;;
37997;SDS011;24079;51.824;4.682;2023-04-25T05:44:10;16.77;;;3.95;;
37997;SDS011;24079;51.824;4.682;2023-04-25T05:46:35;11.73;;;3.08;;
37997;SDS011;24079;51.824;4.682;2023-04-25T05:49:01;19.50;;;3.45;;
37997;SDS011;24079;51.824;4.682;2023-04-25T05:51:27;15.63;;;3.05;;
37997;SDS011;24079;51.824;4.682;2023-04-25T05:53:53;14.73;;;2.53;;
37997;SDS011;24079;51.824;4.682;2023-04-25T05:56:19;16.15;;;2.95;;
37997;SDS011;24079;51.824;4.682;2023-04-25T05:58:45;15.60;;;2.42;;
37997;SDS011;24079;51.824;4.682;2023-04-25T06:01:11;15.38;;;3.63;;
37997;SDS011;24079;51.824;4.682;2023-04-25T06:03:37;21.92;;;3.75;;
37997;SDS011;24079;51.824;4.682;2023-04-25T06:06:03;15.63;;;3.53;;
37997;SDS011;24079;51.824;4.682;2023-04-25T06:08:29;13.02;;;2.95;;
37997;SDS011;24079;51.824;4.682;2023-04-25T06:10:55;22.10;;;3.00;;
37997;SDS011;24079;51.824;4.682;2023-04-25T06:13:21;18.45;;;2.85;;
37997;SDS011;24079;51.824;4.682;2023-04-25T06:15:47;13.27;;;2.55;;
37997;SDS011;24079;51.824;4.682;2023-04-25T06:18:13;13.60;;;2.53;;
37997;SDS011;24079;51.824;4.682;2023-04-25T06:20:39;10.25;;;2.72;;
37997;SDS011;24079;51.824;4.682;2023-04-25T06:23:05;12.23;;;2.17;;
37997;SDS011;24079;51.824;4.682;2023-04-25T06:25:31;13.68;;;2.55;;
37997;SDS011;24079;51.824;4.682;2023-04-25T06:27:57;14.18;;;2.80;;
37997;SDS011;24079;51.824;4.682;2023-04-25T06:30:23;14.20;;;2.72;;
37997;SDS011;24079;51.824;4.682;2023-04-25T06:32:54;13.73;;;2.30;;
37997;SDS011;24079;51.824;4.682;2023-04-25T06:35:20;12.88;;;3.00;;
37997;SDS011;24079;51.824;4.682;2023-04-25T06:37:46;9.32;;;1.98;;
37997;SDS011;24079;51.824;4.682;2023-04-25T06:40:12;12.25;;;2.83;;
37997;SDS011;24079;51.824;4.682;2023-04-25T06:42:38;10.85;;;2.60;;
37997;SDS011;24079;51.824;4.682;2023-04-25T06:45:04;14.15;;;2.60;;
37997;SDS011;24079;51.824;4.682;2023-04-25T06:47:31;11.35;;;2.22;;
37997;SDS011;24079;51.824;4.682;2023-04-25T06:49:57;11.45;;;2.20;;
37997;SDS011;24079;51.824;4.682;2023-04-25T06:52:22;10.77;;;2.25;;
37997;SDS011;24079;51.824;4.682;2023-04-25T06:54:48;37.95;;;5.70;;
37997;SDS011;24079;51.824;4.682;2023-04-25T06:57:14;6.40;;;1.40;;
37997;SDS011;24079;51.824;4.682;2023-04-25T06:59:39;8.48;;;1.25;;
37997;SDS011;24079;51.824;4.682;2023-04-25T07:02:05;3.90;;;1.23;;
37997;SDS011;24079;51.824;4.682;2023-04-25T07:04:31;5.65;;;1.40;;
37997;SDS011;24079;51.824;4.682;2023-04-25T07:06:56;9.60;;;1.65;;
37997;SDS011;24079;51.824;4.682;2023-04-25T07:09:22;7.65;;;1.48;;
37997;SDS011;24079;51.824;4.682;2023-04-25T07:11:48;7.57;;;1.50;;
37997;SDS011;24079;51.824;4.682;2023-04-25T07:14:13;6.55;;;1.45;;
37997;SDS011;24079;51.824;4.682;2023-04-25T07:16:40;6.97;;;1.23;;
37997;SDS011;24079;51.824;4.682;2023-04-25T07:19:05;9.27;;;1.70;;
37997;SDS011;24079;51.824;4.682;2023-04-25T07:21:31;5.15;;;1.52;;
37997;SDS011;24079;51.824;4.682;2023-04-25T07:23:57;6.50;;;1.35;;
37997;SDS011;24079;51.824;4.682;2023-04-25T07:26:23;6.38;;;1.40;;
37997;SDS011;24079;51.824;4.682;2023-04-25T07:28:48;7.75;;;1.90;;
37997;SDS011;24079;51.824;4.682;2023-04-25T07:31:16;6.63;;;1.50;;
37997;SDS011;24079;51.824;4.682;2023-04-25T07:33:43;7.07;;;1.60;;
37997;SDS011;24079;51.824;4.682;2023-04-25T07:36:10;12.63;;;2.63;;
37997;SDS011;24079;51.824;4.682;2023-04-25T07:38:35;16.40;;;2.25;;
37997;SDS011;24079;51.824;4.682;2023-04-25T07:41:01;11.38;;;2.28;;
37997;SDS011;24079;51.824;4.682;2023-04-25T07:43:27;8.32;;;2.05;;
37997;SDS011;24079;51.824;4.682;2023-04-25T07:45:52;9.05;;;2.03;;
37997;SDS011;24079;51.824;4.682;2023-04-25T07:48:18;8.35;;;1.95;;
37997;SDS011;24079;51.824;4.682;2023-04-25T07:50:44;9.93;;;2.53;;
37997;SDS011;24079;51.824;4.682;2023-04-25T07:53:10;10.00;;;2.05;;
37997;SDS011;24079;51.824;4.682;2023-04-25T07:55:36;10.60;;;1.92;;
37997;SDS011;24079;51.824;4.682;2023-04-25T07:58:04;10.63;;;1.80;;
37997;SDS011;24079;51.824;4.682;2023-04-25T08:00:33;13.27;;;1.98;;
37997;SDS011;24079;51.824;4.682;2023-04-25T08:03:00;12.52;;;2.30;;
37997;SDS011;24079;51.824;4.682;2023-04-25T08:05:25;11.25;;;2.10;;
37997;SDS011;24079;51.824;4.682;2023-04-25T08:07:51;10.35;;;2.05;;
37997;SDS011;24079;51.824;4.682;2023-04-25T08:10:16;11.15;;;1.63;;
37997;SDS011;24079;51.824;4.682;2023-04-25T08:12:42;12.60;;;1.95;;
37997;SDS011;24079;51.824;4.682;2023-04-25T08:15:08;12.18;;;2.00;;
37997;SDS011;24079;51.824;4.682;2023-04-25T08:17:34;7.30;;;1.50;;
37997;SDS011;24079;51.824;4.682;2023-04-25T08:19:59;8.70;;;1.80;;
37997;SDS011;24079;51.824;4.682;2023-04-25T08:22:25;9.93;;;2.05;;
37997;SDS011;24079;51.824;4.682;2023-04-25T08:24:51;10.45;;;2.20;;
37997;SDS011;24079;51.824;4.682;2023-04-25T08:27:17;9.50;;;2.25;;
37997;SDS011;24079;51.824;4.682;2023-04-25T08:29:43;12.90;;;1.90;;
37997;SDS011;24079;51.824;4.682;2023-04-25T08:32:08;10.43;;;2.08;;
37997;SDS011;24079;51.824;4.682;2023-04-25T08:34:34;11.77;;;1.92;;
37997;SDS011;24079;51.824;4.682;2023-04-25T08:37:01;8.85;;;1.90;;
37997;SDS011;24079;51.824;4.682;2023-04-25T08:39:29;11.10;;;2.58;;
37997;SDS011;24079;51.824;4.682;2023-04-25T08:41:54;12.30;;;2.50;;
37997;SDS011;24079;51.824;4.682;2023-04-25T08:44:21;9.57;;;1.80;;
37997;SDS011;24079;51.824;4.682;2023-04-25T08:46:48;14.43;;;2.33;;
37997;SDS011;24079;51.824;4.682;2023-04-25T08:49:15;9.85;;;1.98;;
37997;SDS011;24079;51.824;4.682;2023-04-25T08:51:45;9.50;;;1.83;;
37997;SDS011;24079;51.824;4.682;2023-04-25T08:54:13;8.80;;;1.90;;
37997;SDS011;24079;51.824;4.682;2023-04-25T08:56:48;14.57;;;1.77;;
37997;SDS011;24079;51.824;4.682;2023-04-25T08:59:14;9.73;;;1.88;;
37997;SDS011;24079;51.824;4.682;2023-04-25T09:01:40;11.23;;;1.48;;
37997;SDS011;24079;51.824;4.682;2023-04-25T09:04:06;10.23;;;2.05;;
37997;SDS011;24079;51.824;4.682;2023-04-25T09:06:32;9.98;;;1.90;;
37997;SDS011;24079;51.824;4.682;2023-04-25T09:09:06;9.93;;;1.58;;
37997;SDS011;24079;51.824;4.682;2023-04-25T09:11:33;9.63;;;1.92;;
37997;SDS011;24079;51.824;4.682;2023-04-25T09:14:19;11.00;;;1.80;;
37997;SDS011;24079;51.824;4.682;2023-04-25T09:19:28;7.80;;;1.73;;
37997;SDS011;24079;51.824;4.682;2023-04-25T09:21:57;7.07;;;1.50;;
37997;SDS011;24079;51.824;4.682;2023-04-25T09:24:42;6.95;;;1.67;;
37997;SDS011;24079;51.824;4.682;2023-04-25T09:27:11;6.72;;;1.77;;
37997;SDS011;24079;51.824;4.682;2023-04-25T09:29:38;7.53;;;1.73;;
37997;SDS011;24079;51.824;4.682;2023-04-25T09:32:18;10.35;;;1.70;;
37997;SDS011;24079;51.824;4.682;2023-04-25T09:34:46;9.07;;;1.80;;
37997;SDS011;24079;51.824;4.682;2023-04-25T09:37:17;11.82;;;2.08;;
37997;SDS011;24079;51.824;4.682;2023-04-25T09:39:49;8.93;;;1.73;;
37997;SDS011;24079;51.824;4.682;2023-04-25T09:42:21;11.05;;;1.60;;
37997;SDS011;24079;51.824;4.682;2023-04-25T09:44:55;11.30;;;1.60;;
37997;SDS011;24079;51.824;4.682;2023-04-25T09:47:22;8.05;;;1.50;;
37997;SDS011;24079;51.824;4.682;2023-04-25T09:49:52;8.25;;;1.40;;
37997;SDS011;24079;51.824;4.682;2023-04-25T09:52:19;9.27;;;2.15;;
37997;SDS011;24079;51.824;4.682;2023-04-25T09:54:46;7.38;;;1.40;;
37997;SDS011;24079;51.824;4.682;2023-04-25T09:57:16;13.18;;;1.52;;
37997;SDS011;24079;51.824;4.682;2023-04-25T10:02:11;9.35;;;1.48;;
37997;SDS011;24079;51.824;4.682;2023-04-25T10:04:38;11.00;;;1.88;;
37997;SDS011;24079;51.824;4.682;2023-04-25T10:07:07;9.95;;;1.80;;
37997;SDS011;24079;51.824;4.682;2023-04-25T10:09:35;7.85;;;2.10;;
37997;SDS011;24079;51.824;4.682;2023-04-25T10:12:04;10.18;;;2.08;;
37997;SDS011;24079;51.824;4.682;2023-04-25T10:14:31;14.65;;;2.00;;
37997;SDS011;24079;51.824;4.682;2023-04-25T10:16:57;12.90;;;2.13;;
37997;SDS011;24079;51.824;4.682;2023-04-25T10:19:24;12.50;;;2.13;;
37997;SDS011;24079;51.824;4.682;2023-04-25T10:24:36;8.98;;;1.88;;
37997;SDS011;24079;51.824;4.682;2023-04-25T10:27:04;11.07;;;1.85;;
37997;SDS011;24079;51.824;4.682;2023-04-25T10:29:30;7.80;;;1.98;;
37997;SDS011;24079;51.824;4.682;2023-04-25T10:31:56;11.57;;;2.28;;
37997;SDS011;24079;51.824;4.682;2023-04-25T10:34:38;11.55;;;2.20;;
37997;SDS011;24079;51.824;4.682;2023-04-25T10:37:05;6.25;;;1.73;;
37997;SDS011;24079;51.824;4.682;2023-04-25T10:39:34;8.88;;;2.22;;
37997;SDS011;24079;51.824;4.682;2023-04-25T10:42:01;11.50;;;2.20;;
37997;SDS011;24079;51.824;4.682;2023-04-25T10:44:31;9.07;;;1.75;;
37997;SDS011;24079;51.824;4.682;2023-04-25T10:46:57;8.45;;;1.80;;
37997;SDS011;24079;51.824;4.682;2023-04-25T10:49:37;7.43;;;1.95;;
37997;SDS011;24079;51.824;4.682;2023-04-25T10:54:51;10.63;;;1.83;;
37997;SDS011;24079;51.824;4.682;2023-04-25T10:57:28;9.57;;;1.95;;
37997;SDS011;24079;51.824;4.682;2023-04-25T10:59:58;7.45;;;1.67;;
37997;SDS011;24079;51.824;4.682;2023-04-25T11:02:26;9.88;;;1.73;;
37997;SDS011;24079;51.824;4.682;2023-04-25T11:04:53;11.70;;;2.22;;
37997;SDS011;24079;51.824;4.682;2023-04-25T11:12:17;7.07;;;1.33;;
37997;SDS011;24079;51.824;4.682;2023-04-25T11:14:42;5.82;;;1.30;;
37997;SDS011;24079;51.824;4.682;2023-04-25T11:17:08;7.60;;;1.30;;
37997;SDS011;24079;51.824;4.682;2023-04-25T11:19:35;6.57;;;1.50;;
37997;SDS011;24079;51.824;4.682;2023-04-25T11:22:01;10.15;;;1.80;;
37997;SDS011;24079;51.824;4.682;2023-04-25T11:24:34;9.45;;;1.83;;
37997;SDS011;24079;51.824;4.682;2023-04-25T11:27:01;11.45;;;1.92;;
37997;SDS011;24079;51.824;4.682;2023-04-25T11:29:29;11.15;;;1.92;;
37997;SDS011;24079;51.824;4.682;2023-04-25T11:31:56;12.00;;;2.35;;
37997;SDS011;24079;51.824;4.682;2023-04-25T11:34:26;12.50;;;2.42;;
37997;SDS011;24079;51.824;4.682;2023-04-25T11:36:55;9.68;;;1.83;;
37997;SDS011;24079;51.824;4.682;2023-04-25T11:39:21;6.63;;;1.52;;
37997;SDS011;24079;51.824;4.682;2023-04-25T11:41:48;11.68;;;1.88;;
37997;SDS011;24079;51.824;4.682;2023-04-25T11:44:15;13.32;;;2.05;;
37997;SDS011;24079;51.824;4.682;2023-04-25T11:46:41;8.70;;;1.42;;
37997;SDS011;24079;51.824;4.682;2023-04-25T11:49:07;7.43;;;1.92;;
37997;SDS011;24079;51.824;4.682;2023-04-25T11:51:40;9.93;;;1.77;;
37997;SDS011;24079;51.824;4.682;2023-04-25T11:54:06;7.32;;;1.40;;
37997;SDS011;24079;51.824;4.682;2023-04-25T11:56:32;7.80;;;1.40;;
37997;SDS011;24079;51.824;4.682;2023-04-25T11:58:59;9.63;;;1.55;;
37997;SDS011;24079;51.824;4.682;2023-04-25T12:03:56;10.65;;;1.70;;
37997;SDS011;24079;51.824;4.682;2023-04-25T12:06:25;9.77;;;1.50;;
37997;SDS011;24079;51.824;4.682;2023-04-25T12:11:26;8.30;;;1.65;;
37997;SDS011;24079;51.824;4.682;2023-04-25T12:13:52;13.55;;;2.38;;
37997;SDS011;24079;51.824;4.682;2023-04-25T12:16:18;8.73;;;1.25;;
37997;SDS011;24079;51.824;4.682;2023-04-25T12:18:44;9.05;;;1.88;;
37997;SDS011;24079;51.824;4.682;2023-04-25T12:21:10;11.63;;;2.33;;
37997;SDS011;24079;51.824;4.682;2023-04-25T12:23:37;7.95;;;1.75;;
37997;SDS011;24079;51.824;4.682;2023-04-25T12:26:04;11.90;;;1.70;;
37997;SDS011;24079;51.824;4.682;2023-04-25T12:28:31;6.88;;;1.33;;
37997;SDS011;24079;51.824;4.682;2023-04-25T12:33:31;10.20;;;1.65;;
37997;SDS011;24079;51.824;4.682;2023-04-25T12:36:02;8.93;;;1.52;;
37997;SDS011;24079;51.824;4.682;2023-04-25T12:38:35;9.93;;;1.70;;
37997;SDS011;24079;51.824;4.682;2023-04-25T12:41:03;11.45;;;1.60;;
37997;SDS011;24079;51.824;4.682;2023-04-25T12:43:29;9.15;;;1.60;;
37997;SDS011;24079;51.824;4.682;2023-04-25T12:45:55;8.55;;;1.67;;
37997;SDS011;24079;51.824;4.682;2023-04-25T12:48:21;6.53;;;1.45;;
37997;SDS011;24079;51.824;4.682;2023-04-25T12:50:48;12.30;;;2.17;;
37997;SDS011;24079;51.824;4.682;2023-04-25T12:53:15;9.10;;;1.55;;
37997;SDS011;24079;51.824;4.682;2023-04-25T12:55:41;10.27;;;1.95;;
37997;SDS011;24079;51.824;4.682;2023-04-25T12:58:07;12.38;;;1.55;;
37997;SDS011;24079;51.824;4.682;2023-04-25T13:00:33;10.15;;;1.85;;
37997;SDS011;24079;51.824;4.682;2023-04-25T13:02:58;13.07;;;2.28;;
37997;SDS011;24079;51.824;4.682;2023-04-25T13:05:24;10.75;;;1.98;;
37997;SDS011;24079;51.824;4.682;2023-04-25T13:07:50;13.65;;;2.10;;
37997;SDS011;24079;51.824;4.682;2023-04-25T13:10:16;10.07;;;1.88;;
37997;SDS011;24079;51.824;4.682;2023-04-25T13:12:43;9.93;;;1.75;;
37997;SDS011;24079;51.824;4.682;2023-04-25T13:15:09;10.85;;;1.75;;
37997;SDS011;24079;51.824;4.682;2023-04-25T13:17:36;11.77;;;1.70;;
37997;SDS011;24079;51.824;4.682;2023-04-25T13:20:03;9.20;;;1.67;;
37997;SDS011;24079;51.824;4.682;2023-04-25T13:22:33;8.95;;;1.75;;
37997;SDS011;24079;51.824;4.682;2023-04-25T13:25:02;6.95;;;1.55;;
37997;SDS011;24079;51.824;4.682;2023-04-25T13:27:28;12.75;;;1.50;;
37997;SDS011;24079;51.824;4.682;2023-04-25T13:29:55;10.77;;;2.03;;
37997;SDS011;24079;51.824;4.682;2023-04-25T13:32:21;10.52;;;2.45;;
37997;SDS011;24079;51.824;4.682;2023-04-25T13:34:46;11.00;;;1.98;;
37997;SDS011;24079;51.824;4.682;2023-04-25T13:37:12;11.20;;;1.95;;
37997;SDS011;24079;51.824;4.682;2023-04-25T13:39:37;6.88;;;1.40;;
37997;SDS011;24079;51.824;4.682;2023-04-25T13:42:03;13.95;;;1.85;;
37997;SDS011;24079;51.824;4.682;2023-04-25T13:44:29;13.85;;;1.92;;
37997;SDS011;24079;51.824;4.682;2023-04-25T13:46:54;11.48;;;1.75;;
37997;SDS011;24079;51.824;4.682;2023-04-25T13:49:20;13.15;;;2.13;;
37997;SDS011;24079;51.824;4.682;2023-04-25T13:51:47;8.38;;;1.73;;
37997;SDS011;24079;51.824;4.682;2023-04-25T13:54:13;8.57;;;1.52;;
37997;SDS011;24079;51.824;4.682;2023-04-25T13:56:39;6.30;;;1.38;;
37997;SDS011;24079;51.824;4.682;2023-04-25T13:59:07;5.60;;;1.45;;
37997;SDS011;24079;51.824;4.682;2023-04-25T14:01:32;8.48;;;1.60;;
37997;SDS011;24079;51.824;4.682;2023-04-25T14:04:00;6.70;;;1.42;;
37997;SDS011;24079;51.824;4.682;2023-04-25T14:06:26;10.20;;;2.25;;
37997;SDS011;24079;51.824;4.682;2023-04-25T14:08:53;13.23;;;2.38;;
37997;SDS011;24079;51.824;4.682;2023-04-25T14:11:19;11.77;;;2.53;;
37997;SDS011;24079;51.824;4.682;2023-04-25T14:13:45;9.00;;;1.63;;
37997;SDS011;24079;51.824;4.682;2023-04-25T14:16:11;7.35;;;1.90;;
37997;SDS011;24079;51.824;4.682;2023-04-25T14:18:36;9.77;;;1.80;;
37997;SDS011;24079;51.824;4.682;2023-04-25T14:21:02;11.27;;;2.08;;
37997;SDS011;24079;51.824;4.682;2023-04-25T14:23:27;9.80;;;1.80;;
37997;SDS011;24079;51.824;4.682;2023-04-25T14:25:53;9.10;;;1.85;;
37997;SDS011;24079;51.824;4.682;2023-04-25T14:28:19;10.48;;;1.50;;
37997;SDS011;24079;51.824;4.682;2023-04-25T14:30:45;13.65;;;2.83;;
37997;SDS011;24079;51.824;4.682;2023-04-25T14:33:10;13.90;;;2.00;;
37997;SDS011;24079;51.824;4.682;2023-04-25T14:35:36;14.95;;;2.15;;
37997;SDS011;24079;51.824;4.682;2023-04-25T14:38:02;10.70;;;1.60;;
37997;SDS011;24079;51.824;4.682;2023-04-25T14:40:28;5.22;;;1.45;;
37997;SDS011;24079;51.824;4.682;2023-04-25T14:42:54;8.43;;;2.13;;
37997;SDS011;24079;51.824;4.682;2023-04-25T14:45:19;7.72;;;1.70;;
37997;SDS011;24079;51.824;4.682;2023-04-25T14:47:45;6.15;;;2.13;;
37997;SDS011;24079;51.824;4.682;2023-04-25T14:50:11;8.02;;;1.65;;
37997;SDS011;24079;51.824;4.682;2023-04-25T14:52:37;10.38;;;1.83;;
37997;SDS011;24079;51.824;4.682;2023-04-25T14:55:03;12.43;;;1.67;;
37997;SDS011;24079;51.824;4.682;2023-04-25T14:57:32;10.05;;;1.50;;